Latest Weather Observations for Thredbo Top Station

IDN60801

Issued at 5:22 am EST Wednesday 18 July 2018 (issued every 10 minutes, with the page automatically refreshed every 10 minutes)

About weather observations | Map of weather stations | Latest weather observations for NSW | Other Formats
Station Details ID: 071032 Name: THREDBO AWS Lat: -36.49 Lon: 148.29 Height: 1957.0 m
Data from the previous 72 hours. | See also: Recent months at Thredbo Top Station
Date/Time
EST
Temp
°C
App
Temp
°C
Dew
Point
°C
Rel
Hum
%
Delta-T
°C
Wind Press
QNH
hPa
Press
MSL
hPa
Rain since
9am
mm
Dir  Spd
km/h
Gust
km/h
Spd
kts
Gust
kts
18/05:00am -5.2 -19.5 -5.7 96 -0.1 NW 61 82 33 44 - - 4.6
18/04:51am -5.1 -19.4 -5.8 95 0.0 NW 61 82 33 44 - - 4.6
18/04:30am -5.5 -19.8 -6.0 96 -0.1 NW 61 72 33 39 - - 4.6
18/04:02am -5.5 -19.0 -6.0 96 -0.1 NW 57 76 31 41 - - 4.6
18/04:00am -5.4 -18.9 -5.8 97 -0.1 NW 57 72 31 39 - - 4.6
18/03:34am -4.8 -19.0 -5.2 97 -0.1 NW 61 80 33 43 - - 4.6
18/03:30am -4.8 -19.0 -5.2 97 -0.1 NW 61 78 33 42 - - 4.6
18/03:07am -4.5 -19.1 -4.9 97 -0.1 NW 63 83 34 45 - - 4.6
18/03:00am -4.7 -20.0 -5.1 97 -0.1 NW 67 78 36 42 - - 4.6
18/02:45am -4.7 -18.0 -5.1 97 -0.1 NW 56 76 30 41 - - 4.6
18/02:30am -4.7 -16.1 -5.1 97 -0.1 NW 46 65 25 35 - - 4.6
18/02:00am -4.4 -16.1 -4.8 97 -0.1 NW 48 69 26 37 - - 4.6
18/01:30am -4.4 -17.6 -4.8 97 -0.1 NW 56 74 30 40 - - 4.6
18/01:00am -4.2 -16.3 -4.6 97 0.0 NW 50 70 27 38 - - 4.6
18/12:30am -3.9 -15.6 -4.3 97 0.0 NW 48 69 26 37 - - 4.6
18/12:00am -3.7 -15.0 -4.1 97 0.0 NW 46 65 25 35 - - 4.6
 
Date/Time
EST
Temp
°C
App
Temp
°C
Dew
Point
°C
Rel
Hum
%
Delta-T
°C
Wind Press
QNH
hPa
Press
MSL
hPa
Rain since
9am
mm
Dir  Spd
km/h
Gust
km/h
Spd
kts
Gust
kts
17/11:30pm -3.6 -15.2 -4.0 97 0.0 WNW 48 82 26 44 - - 4.6
17/11:00pm -3.2 -15.9 -3.6 97 0.0 WNW 54 78 29 42 - - 4.6
17/10:30pm -2.9 -15.2 -3.3 97 0.0 WNW 52 85 28 46 - - 4.6
17/10:08pm -2.8 -15.8 -3.2 97 0.0 WNW 56 89 30 48 - - 4.6
17/10:00pm -2.6 -14.9 -3.0 97 0.0 WNW 52 78 28 42 - - 4.4
17/09:59pm -2.7 -15.4 -3.1 97 0.0 WNW 54 80 29 43 - - 4.4
17/09:55pm -2.7 -16.7 -3.1 97 0.0 WNW 61 106 33 57 - - 4.4
17/09:46pm -3.2 -16.9 -3.6 97 0.0 WNW 59 106 32 57 - - 4.4
17/09:30pm -2.6 -15.2 -3.0 97 0.0 WNW 54 83 29 45 - - 4.4
17/09:00pm -2.6 -16.6 -3.0 97 0.0 WNW 61 100 33 54 - - 4.0
17/08:51pm -2.5 -15.7 -2.9 97 0.0 WNW 57 85 31 46 - - 4.0
17/08:50pm -2.5 -15.7 -2.9 97 0.0 WNW 57 85 31 46 - - 4.0
17/08:43pm -2.6 -15.2 -3.0 97 0.0 WNW 54 87 29 47 - - 3.8
17/08:31pm -2.5 -15.7 -2.9 97 0.0 W 57 87 31 47 - - 3.6
17/08:30pm -2.5 -15.5 -2.9 97 0.0 W 56 83 30 45 - - 3.6
17/08:19pm -1.5 -13.6 -1.9 97 0.1 WNW 52 80 28 43 - - 2.8
17/08:16pm -0.9 -13.9 -1.3 97 0.1 WNW 57 89 31 48 - - 2.6
17/08:00pm -0.9 -17.1 -1.3 97 0.1 NW 74 107 40 58 - - 1.4
17/07:57pm -0.8 -18.2 -1.2 97 0.1 NW 80 107 43 58 - - 1.2
17/07:41pm -0.9 -20.0 -1.3 97 0.1 NW 89 119 48 64 - - 0.6
17/07:40pm -0.8 -19.9 -1.2 97 0.1 NW 89 119 48 64 - - 0.6
17/07:30pm -0.7 -16.9 -1.1 97 0.1 NNW 74 106 40 57 - - 0.2
17/07:28pm -0.8 -16.6 -1.2 97 0.1 NNW 72 106 39 57 - - 0.2
17/07:00pm -0.6 -14.7 -1.4 94 0.3 NNW 63 89 34 48 - - 0.0
17/06:30pm -0.8 -14.0 -2.5 88 0.6 NNW 57 85 31 46 - - 0.0
17/06:00pm -0.7 -14.7 -2.9 85 0.8 NNW 61 80 33 43 - - 0.0
17/05:32pm -0.8 -14.8 -3.0 85 0.8 NNW 61 89 33 48 - - 0.0
17/05:30pm -0.9 -14.5 -3.3 84 0.9 NNW 59 76 32 41 - - 0.0
17/05:00pm -1.0 -15.1 -3.8 81 1.0 NNW 61 76 33 41 - - 0.0
17/04:30pm -1.4 -14.1 -3.9 83 0.9 NNW 54 69 29 37 - - 0.0
17/04:00pm -1.2 -14.5 -3.7 83 0.9 NNW 57 70 31 38 - - 0.0
17/03:30pm -0.9 -16.1 -3.7 81 1.0 NNW 67 91 36 49 - - 0.0
17/03:10pm -0.4 -16.8 -2.9 83 0.9 NW 74 93 40 50 - - 0.0
17/03:00pm -0.3 -17.8 -2.7 84 0.9 NW 80 95 43 51 - - 0.0
17/02:30pm -0.3 -18.5 -3.7 78 1.3 NW 83 106 45 57 - - 0.0
17/02:00pm -0.2 -17.2 -4.8 71 1.7 NW 76 98 41 53 - - 0.0
17/01:51pm -0.1 -17.2 -5.3 68 1.9 NW 76 98 41 53 - - 0.0
17/01:30pm 0.1 -16.1 -4.0 74 1.5 NW 72 85 39 46 - - 0.0
17/01:28pm 0.1 -16.1 -3.8 75 1.5 NW 72 85 39 46 - - 0.0
17/01:00pm 0.0 -18.9 -2.5 83 1.0 NW 87 102 47 55 - - 0.0
17/12:30pm -0.4 -20.7 -1.7 91 0.5 NW 95 111 51 60 - - 0.0
17/12:11pm -0.5 -22.1 -1.5 93 0.4 NW 102 120 55 65 - - 0.0
17/12:00pm -0.3 -21.4 -0.9 96 0.2 NW 100 115 54 62 - - 0.0
17/11:35am -0.4 -21.1 -0.8 97 0.1 NW 98 117 53 63 - - 0.0
17/11:30am -0.4 -21.1 -0.8 97 0.1 NW 98 115 53 62 - - 0.0
17/11:15am -0.5 -20.9 -1.3 94 0.3 NW 96 117 52 63 - - 0.0
17/11:00am -0.4 -20.8 -1.2 94 0.3 NW 96 113 52 61 - - 0.0
17/10:30am -0.4 -20.2 -1.4 93 0.4 NW 93 113 50 61 - - 0.0
17/10:20am -0.4 -19.5 -1.5 92 0.4 NW 89 107 48 58 - - 0.0
17/10:00am -0.4 -19.8 -1.1 95 0.3 NW 91 107 49 58 - - 0.0
17/09:34am -0.5 -19.9 -1.2 95 0.3 NW 91 113 49 61 - - 0.0
17/09:30am -0.5 -19.9 -1.1 96 0.2 NW 91 106 49 57 - - 0.0
17/09:00am -0.6 -19.3 -1.6 93 0.4 NW 87 107 47 58 - - 0.2
17/08:30am -0.8 -18.8 -2.1 91 0.5 NW 83 104 45 56 - - 0.2
17/08:05am -1.0 -19.4 -2.3 91 0.5 NW 85 104 46 56 - - 0.2
17/08:00am -1.0 -19.4 -2.1 92 0.4 NW 85 102 46 55 - - 0.2
17/07:36am -1.0 -17.0 -2.1 92 0.4 NW 72 91 39 49 - - 0.2
17/07:30am -1.0 -16.6 -2.1 92 0.4 NW 70 83 38 45 - - 0.2
17/07:00am -0.9 -14.4 -2.5 89 0.6 NW 59 78 32 42 - - 0.2
17/06:30am -1.1 -14.6 -2.4 91 0.4 NW 59 78 32 42 - - 0.2
17/06:26am -1.2 -14.3 -2.3 92 0.4 NW 57 76 31 41 - - 0.2
17/06:00am -1.3 -14.2 -2.4 92 0.4 NW 56 69 30 37 - - 0.2
17/05:46am -1.2 -13.7 -2.2 93 0.3 NW 54 72 29 39 - - 0.2
17/05:30am -1.3 -13.9 -2.7 90 0.5 NW 54 67 29 36 - - 0.2
17/05:00am -1.2 -14.7 -2.6 90 0.5 NW 59 78 32 42 - - 0.2
17/04:54am -1.2 -14.4 -2.8 89 0.5 NW 57 78 31 42 - - 0.2
17/04:30am -1.3 -15.3 -2.9 89 0.5 NW 61 76 33 41 - - 0.2
17/04:00am -1.3 -15.7 -3.0 88 0.6 NW 63 74 34 40 - - 0.2
17/03:30am -1.3 -16.8 -2.9 89 0.5 NW 69 83 37 45 - - 0.2
17/03:00am -1.3 -16.8 -3.0 88 0.6 NW 69 85 37 46 - - 0.2
17/02:52am -1.3 -16.0 -2.9 89 0.5 NW 65 85 35 46 - - 0.2
17/02:30am -1.4 -16.5 -3.1 88 0.6 NW 67 82 36 44 - - 0.2
17/02:11am -1.5 -14.6 -2.2 95 0.2 NW 57 76 31 41 - - 0.2
17/02:00am -1.5 -14.6 -2.1 96 0.2 NW 57 74 31 40 - - 0.2
17/01:41am -1.5 -15.0 -2.2 95 0.2 NW 59 80 32 43 - - 0.2
17/01:30am -1.4 -14.6 -2.5 92 0.3 NW 57 72 31 39 - - 0.2
17/01:00am -1.8 -14.8 -3.2 90 0.4 NW 56 69 30 37 - - 0.2
17/12:30am -1.9 -16.0 -3.8 87 0.6 NW 61 72 33 39 - - 0.2
17/12:00am -1.8 -17.1 -4.3 83 0.8 NW 67 78 36 42 - - 0.2
 
Date/Time
EST
Temp
°C
App
Temp
°C
Dew
Point
°C
Rel
Hum
%
Delta-T
°C
Wind Press
QNH
hPa
Press
MSL
hPa
Rain since
9am
mm
Dir  Spd
km/h
Gust
km/h
Spd
kts
Gust
kts
16/11:30pm -2.2 -19.2 -4.1 87 0.6 NW 76 87 41 47 - - 0.2
16/11:02pm -1.9 -19.2 -3.9 86 0.6 NW 78 96 42 52 - - 0.2
16/11:00pm -1.9 -19.6 -3.9 86 0.6 NW 80 96 43 52 - - 0.2
16/10:54pm -1.5 -18.8 -3.4 87 0.6 NW 78 96 42 52 - - 0.2
16/10:30pm -2.3 -20.6 -3.9 89 0.5 NW 83 98 45 53 - - 0.2
16/10:12pm -2.4 -20.1 -3.8 90 0.4 NW 80 98 43 53 - - 0.2
16/10:00pm -2.5 -20.6 -3.8 91 0.4 NW 82 95 44 51 - - 0.2
16/09:30pm -2.4 -18.5 -3.4 93 0.3 NW 72 87 39 47 - - 0.2
16/09:00pm -2.4 -18.9 -3.4 93 0.3 NW 74 85 40 46 - - 0.2
16/08:30pm -2.5 -20.1 -3.2 95 0.1 NW 80 98 43 53 - - 0.2
16/08:00pm -3.1 -20.4 -3.5 97 0.0 NW 78 96 42 52 - - 0.2
16/07:40pm -3.1 -20.0 -3.5 97 0.0 NW 76 95 41 51 - - 0.2
16/07:30pm -3.2 -20.5 -3.6 97 0.0 NW 78 95 42 51 - - 0.2
16/07:00pm -3.3 -21.5 -3.8 96 0.0 NW 83 96 45 52 - - 0.2
16/06:50pm -3.3 -20.2 -4.0 95 0.1 NW 76 95 41 51 - - 0.2
16/06:30pm -2.9 -19.0 -3.7 94 0.2 NW 72 85 39 46 - - 0.2
16/06:00pm -2.7 -18.8 -3.5 94 0.2 NW 72 85 39 46 - - 0.2
16/05:30pm -2.7 -19.2 -3.4 95 0.1 NW 74 91 40 49 - - 0.2
16/05:22pm -2.6 -18.7 -3.3 95 0.1 NW 72 91 39 49 - - 0.2
16/05:00pm -2.8 -18.9 -3.5 95 0.1 NW 72 87 39 47 - - 0.2
16/04:30pm -3.1 -17.1 -3.5 97 0.0 NW 61 80 33 43 - - 0.2
16/04:00pm -3.1 -16.4 -3.5 97 0.0 NW 57 83 31 45 - - 0.2
16/03:38pm -2.8 -16.0 -3.2 97 0.0 NW 57 76 31 41 - - 0.2
16/03:30pm -2.7 -16.7 -3.1 97 0.0 NW 61 76 33 41 - - 0.2
16/03:00pm -2.6 -17.3 -3.0 97 0.0 NW 65 82 35 44 - - 0.2
16/02:40pm -2.6 -17.0 -3.0 97 0.0 NW 63 82 34 44 - - 0.2
16/02:30pm -2.8 -16.8 -3.2 97 0.0 NW 61 74 33 40 - - 0.2
16/02:19pm -2.7 -15.7 -3.1 97 0.0 NW 56 74 30 40 - - 0.2
16/02:00pm -2.7 -16.3 -3.1 97 0.0 NW 59 74 32 40 - - 0.2
16/01:30pm -3.0 -15.3 -3.4 97 0.0 NW 52 67 28 36 - - 0.2
16/01:00pm -3.1 -13.7 -3.5 97 0.0 NW 43 59 23 32 - - 0.2
16/12:30pm -3.2 -13.4 -3.6 97 0.0 NW 41 50 22 27 - - 0.0
16/12:11pm -3.1 -13.7 -3.5 97 0.0 NW 43 61 23 33 - - 0.0
16/12:00pm -3.2 -13.4 -3.6 97 0.0 NW 41 52 22 28 - - 0.0
16/11:30am -3.2 -13.1 -3.6 97 0.0 NW 39 50 21 27 - - 0.0
16/11:00am -4.0 -14.7 -4.5 96 0.0 NW 43 56 23 30 - - 0.0
16/10:30am -4.1 -15.0 -4.5 97 0.0 NW 44 57 24 31 - - 0.0
16/10:25am -4.1 -15.0 -4.5 97 0.0 NW 44 63 24 34 - - 0.0
16/10:00am -4.0 -16.0 -4.4 97 0.0 NW 50 63 27 34 - - 0.0
16/09:30am -3.5 -14.7 -3.9 97 0.0 NW 46 59 25 32 - - 0.0
16/09:00am -4.0 -14.7 -4.4 97 0.0 NW 43 61 23 33 - - 0.0
16/08:47am -4.8 -14.5 -5.2 97 -0.1 NW 37 56 20 30 - - 0.0
16/08:30am -5.0 -15.4 -5.4 97 -0.1 NW 41 57 22 31 - - 0.0
16/08:16am -5.0 -15.4 -5.4 97 -0.1 NW 41 59 22 32 - - 0.0
16/08:00am -4.9 -16.3 -5.3 97 -0.1 NNW 46 57 25 31 - - 0.0
16/07:40am -5.0 -16.4 -5.4 97 -0.1 NW 46 65 25 35 - - 0.0
16/07:30am -5.0 -16.8 -5.4 97 -0.1 NNW 48 63 26 34 - - 0.0
16/07:18am -5.1 -16.1 -5.5 97 -0.1 NW 44 63 24 34 - - 0.0
16/07:00am -5.0 -16.4 -5.4 97 -0.1 NW 46 57 25 31 - - 0.0
16/06:30am -5.0 -15.8 -5.4 97 -0.1 NW 43 56 23 30 - - 0.0
16/06:07am -4.9 -17.4 -5.3 97 -0.1 NNW 52 72 28 39 - - 0.0
16/06:00am -5.0 -17.1 -5.4 97 -0.1 NNW 50 67 27 36 - - 0.0
16/05:30am -4.8 -16.5 -5.2 97 -0.1 NW 48 67 26 36 - - 0.0
16/05:24am -4.9 -16.7 -5.3 97 -0.1 NW 48 67 26 36 - - 0.0
16/05:00am -5.2 -17.4 -5.7 96 -0.1 NW 50 63 27 34 - - 0.0
16/04:30am -4.9 -16.7 -5.4 96 0.0 NW 48 61 26 33 - - 0.0
16/04:22am -5.3 -15.8 -5.8 96 -0.1 NW 41 61 22 33 - - 0.0
16/04:00am -5.4 -16.3 -6.3 93 0.1 NW 43 56 23 30 - - 0.0
16/03:30am -3.7 -15.6 -6.6 80 0.8 NW 48 59 26 32 - - 0.0
16/03:00am -4.4 -17.5 -7.2 81 0.7 NW 54 67 29 36 - - 0.0
16/02:30am -4.8 -17.9 -6.9 85 0.5 NW 54 67 29 36 - - 0.0
16/02:00am -4.4 -17.1 -7.0 82 0.7 NW 52 65 28 35 - - 0.0
16/01:30am -4.5 -16.1 -7.7 78 0.8 NW 46 59 25 32 - - 0.0
16/01:00am -4.2 -15.8 -7.8 76 1.0 NW 46 56 25 30 - - 0.0
16/12:30am -4.1 -15.6 -6.9 81 0.7 NW 46 56 25 30 - - 0.0
16/12:00am -3.2 -14.1 -6.6 77 1.0 WNW 43 52 23 28 - - 0.0
 
Date/Time
EST
Temp
°C
App
Temp
°C
Dew
Point
°C
Rel
Hum
%
Delta-T
°C
Wind Press
QNH
hPa
Press
MSL
hPa
Rain since
9am
mm
Dir  Spd
km/h
Gust
km/h
Spd
kts
Gust
kts
15/11:30pm -3.4 -14.0 -7.0 76 1.0 NW 41 52 22 28 - - 0.0
15/11:00pm -3.8 -13.4 -8.1 72 1.2 NW 35 46 19 25 - - 0.0
15/10:51pm -3.5 -11.7 -8.3 69 1.4 WNW 28 46 15 25 - - 0.0
15/10:30pm -3.7 -10.8 -8.7 68 1.4 WNW 22 32 12 17 - - 0.0
15/10:00pm -3.3 -11.2 -8.7 66 1.6 W 26 35 14 19 - - 0.0
15/09:30pm -2.8 -9.9 -8.4 65 1.7 W 22 35 12 19 - - 0.0
15/09:00pm -1.0 -9.1 -6.3 67 1.8 W 28 37 15 20 - - 0.0
15/08:30pm -1.7 -9.1 -7.4 65 1.8 W 24 32 13 17 - - 0.0
15/08:00pm -2.5 -10.1 -10.0 56 2.2 W 24 43 13 23 - - 0.0
15/07:30pm -2.5 -10.5 -10.7 53 2.4 W 26 35 14 19 - - 0.0
15/07:00pm -1.9 -10.2 -9.5 56 2.3 W 28 39 15 21 - - 0.0
15/06:30pm -1.7 -8.6 -10.7 50 2.7 W 20 37 11 20 - - 0.0
15/06:00pm -2.2 -9.9 -10.9 51 2.5 W 24 32 13 17 - - 0.0
15/05:30pm -2.0 -10.4 -11.0 50 2.6 WNW 28 35 15 19 - - 0.0
15/05:00pm -2.0 -10.0 -10.0 54 2.4 WNW 26 33 14 18 - - 0.0
15/04:30pm -2.1 -9.0 -10.4 53 2.5 WNW 20 28 11 15 - - 0.0
15/04:00pm -0.9 -8.2 -10.8 47 3.0 W 22 28 12 15 - - 0.0
15/03:30pm -1.2 -7.9 -10.8 48 2.9 WNW 19 22 10 12 - - 0.0
15/03:00pm -0.8 -7.1 -10.9 46 3.1 NW 17 22 9 12 - - 0.0
15/02:30pm -0.3 -7.0 -10.0 48 3.1 NW 19 26 10 14 - - 0.0
15/02:00pm 0.3 -5.6 -10.5 44 3.4 WNW 15 20 8 11 - - 0.0
15/01:30pm 0.6 -6.1 -9.9 45 3.4 WNW 19 24 10 13 - - 0.0
15/01:00pm 0.7 -5.6 -10.4 43 3.6 WNW 17 19 9 10 - - 0.0
15/12:30pm 0.9 -5.1 -10.8 41 3.8 WNW 15 20 8 11 - - 0.0
15/12:00pm 0.8 -5.2 -11.6 39 3.9 W 15 19 8 10 - - 0.0
15/11:30am -0.2 -5.9 -11.8 41 3.5 WNW 13 17 7 9 - - 0.0
15/11:00am -0.1 -6.9 -12.0 40 3.6 W 19 22 10 12 - - 0.0
15/10:30am -1.2 -8.3 -14.0 37 3.6 WNW 20 24 11 13 - - 0.0
15/10:00am -1.7 -9.2 -14.8 36 3.5 WNW 22 26 12 14 - - 0.0
15/09:30am -1.6 -10.0 -17.7 28 4.0 WNW 26 35 14 19 - - 0.0
15/09:00am -2.4 -10.9 -18.4 28 3.8 WNW 26 32 14 17 - - 0.0
15/08:30am -2.4 -11.3 -18.8 27 3.9 WNW 28 33 15 18 - - 0.0
15/08:00am -3.0 -12.2 -18.9 28 3.7 WNW 30 35 16 19 - - 0.0
15/07:30am -4.4 -13.3 -18.9 31 3.2 WNW 28 33 15 18 - - 0.0
15/07:00am -4.9 -13.8 -19.4 31 3.1 WNW 28 32 15 17 - - 0.0
15/06:30am -5.3 -14.1 -18.3 35 2.9 WNW 28 35 15 19 - - 0.0
15/06:00am -4.4 -14.2 -18.2 33 3.1 NW 33 39 18 21 - - 0.0
15/05:30am -4.9 -15.0 -16.1 41 2.6 NW 35 39 19 21 - - 0.0

Other Formats:

Comma delimited format used in spreadsheet applications
http://www.bom.gov.au/fwo/IDN60801/IDN60801.95909.axf

JavaScript Object Notation format (JSON) in row-major order
http://www.bom.gov.au/fwo/IDN60801/IDN60801.95909.json